sensor_id;sensor_type;location;lat;lon;timestamp;P1;durP1;ratioP1;P2;durP2;ratioP2
15567;SDS011;7885;42.596;23.044;2022-10-22T00:00:58;29.13;;;19.80;;
15567;SDS011;7885;42.596;23.044;2022-10-22T00:03:25;28.20;;;20.00;;
15567;SDS011;7885;42.596;23.044;2022-10-22T00:05:51;25.07;;;18.57;;
15567;SDS011;7885;42.596;23.044;2022-10-22T00:08:18;25.00;;;20.17;;
15567;SDS011;7885;42.596;23.044;2022-10-22T00:10:45;25.77;;;19.03;;
15567;SDS011;7885;42.596;23.044;2022-10-22T00:13:13;24.47;;;19.37;;
15567;SDS011;7885;42.596;23.044;2022-10-22T00:15:41;30.17;;;20.37;;
15567;SDS011;7885;42.596;23.044;2022-10-22T00:18:07;23.27;;;18.70;;
15567;SDS011;7885;42.596;23.044;2022-10-22T00:20:34;30.10;;;20.17;;
15567;SDS011;7885;42.596;23.044;2022-10-22T00:23:01;30.90;;;22.20;;
15567;SDS011;7885;42.596;23.044;2022-10-22T00:25:28;27.50;;;20.67;;
15567;SDS011;7885;42.596;23.044;2022-10-22T00:27:54;23.50;;;19.70;;
15567;SDS011;7885;42.596;23.044;2022-10-22T00:30:23;29.57;;;20.80;;
15567;SDS011;7885;42.596;23.044;2022-10-22T00:32:49;36.20;;;27.47;;
15567;SDS011;7885;42.596;23.044;2022-10-22T00:35:16;23.77;;;17.93;;
15567;SDS011;7885;42.596;23.044;2022-10-22T00:37:43;20.50;;;16.20;;
15567;SDS011;7885;42.596;23.044;2022-10-22T00:40:10;20.77;;;17.10;;
15567;SDS011;7885;42.596;23.044;2022-10-22T00:42:37;19.87;;;16.60;;
15567;SDS011;7885;42.596;23.044;2022-10-22T00:45:06;22.27;;;16.53;;
15567;SDS011;7885;42.596;23.044;2022-10-22T00:47:45;21.57;;;17.60;;
15567;SDS011;7885;42.596;23.044;2022-10-22T00:50:16;25.47;;;18.57;;
15567;SDS011;7885;42.596;23.044;2022-10-22T00:52:46;26.97;;;19.13;;
15567;SDS011;7885;42.596;23.044;2022-10-22T00:55:14;26.10;;;18.77;;
15567;SDS011;7885;42.596;23.044;2022-10-22T00:57:42;21.50;;;18.13;;
15567;SDS011;7885;42.596;23.044;2022-10-22T01:00:10;24.87;;;19.13;;
15567;SDS011;7885;42.596;23.044;2022-10-22T01:02:37;21.13;;;18.17;;
15567;SDS011;7885;42.596;23.044;2022-10-22T01:05:06;24.93;;;18.53;;
15567;SDS011;7885;42.596;23.044;2022-10-22T01:07:34;20.40;;;14.40;;
15567;SDS011;7885;42.596;23.044;2022-10-22T01:10:07;19.73;;;14.40;;
15567;SDS011;7885;42.596;23.044;2022-10-22T01:12:42;19.37;;;14.30;;
15567;SDS011;7885;42.596;23.044;2022-10-22T01:15:18;23.53;;;15.13;;
15567;SDS011;7885;42.596;23.044;2022-10-22T01:17:53;24.77;;;18.77;;
15567;SDS011;7885;42.596;23.044;2022-10-22T01:20:34;30.00;;;20.80;;
15567;SDS011;7885;42.596;23.044;2022-10-22T01:23:16;26.90;;;20.30;;
15567;SDS011;7885;42.596;23.044;2022-10-22T01:25:57;26.33;;;19.30;;
15567;SDS011;7885;42.596;23.044;2022-10-22T01:28:44;22.10;;;18.47;;
15567;SDS011;7885;42.596;23.044;2022-10-22T01:31:19;20.03;;;17.83;;
15567;SDS011;7885;42.596;23.044;2022-10-22T01:33:48;21.67;;;18.17;;
15567;SDS011;7885;42.596;23.044;2022-10-22T01:36:19;25.60;;;19.50;;
15567;SDS011;7885;42.596;23.044;2022-10-22T01:38:47;30.57;;;21.50;;
15567;SDS011;7885;42.596;23.044;2022-10-22T01:41:16;31.57;;;22.83;;
15567;SDS011;7885;42.596;23.044;2022-10-22T01:43:45;33.80;;;24.33;;
15567;SDS011;7885;42.596;23.044;2022-10-22T01:46:12;29.23;;;23.07;;
15567;SDS011;7885;42.596;23.044;2022-10-22T01:48:44;28.63;;;22.40;;
15567;SDS011;7885;42.596;23.044;2022-10-22T01:51:23;26.63;;;21.70;;
15567;SDS011;7885;42.596;23.044;2022-10-22T01:53:59;25.47;;;20.27;;
15567;SDS011;7885;42.596;23.044;2022-10-22T01:56:36;21.53;;;18.60;;
15567;SDS011;7885;42.596;23.044;2022-10-22T01:59:21;20.60;;;17.57;;
15567;SDS011;7885;42.596;23.044;2022-10-22T02:01:57;25.03;;;19.27;;
15567;SDS011;7885;42.596;23.044;2022-10-22T02:04:30;22.13;;;17.97;;
15567;SDS011;7885;42.596;23.044;2022-10-22T02:07:03;33.77;;;21.43;;
15567;SDS011;7885;42.596;23.044;2022-10-22T02:09:32;31.47;;;19.57;;
15567;SDS011;7885;42.596;23.044;2022-10-22T02:12:01;24.13;;;19.53;;
15567;SDS011;7885;42.596;23.044;2022-10-22T02:14:32;27.13;;;18.77;;
15567;SDS011;7885;42.596;23.044;2022-10-22T02:17:02;32.93;;;21.50;;
15567;SDS011;7885;42.596;23.044;2022-10-22T02:19:34;25.93;;;19.60;;
15567;SDS011;7885;42.596;23.044;2022-10-22T02:22:06;27.27;;;21.77;;
15567;SDS011;7885;42.596;23.044;2022-10-22T02:24:33;26.23;;;21.33;;
15567;SDS011;7885;42.596;23.044;2022-10-22T02:27:02;25.97;;;18.47;;
15567;SDS011;7885;42.596;23.044;2022-10-22T02:29:35;28.37;;;20.63;;
15567;SDS011;7885;42.596;23.044;2022-10-22T02:32:05;26.90;;;20.07;;
15567;SDS011;7885;42.596;23.044;2022-10-22T02:34:36;25.00;;;19.60;;
15567;SDS011;7885;42.596;23.044;2022-10-22T02:37:03;23.87;;;18.93;;
15567;SDS011;7885;42.596;23.044;2022-10-22T02:39:31;24.67;;;18.27;;
15567;SDS011;7885;42.596;23.044;2022-10-22T02:41:59;22.50;;;17.40;;
15567;SDS011;7885;42.596;23.044;2022-10-22T02:44:27;19.77;;;16.07;;
15567;SDS011;7885;42.596;23.044;2022-10-22T02:46:55;21.07;;;17.67;;
15567;SDS011;7885;42.596;23.044;2022-10-22T02:49:22;23.23;;;17.30;;
15567;SDS011;7885;42.596;23.044;2022-10-22T02:51:49;22.63;;;17.93;;
15567;SDS011;7885;42.596;23.044;2022-10-22T02:54:15;24.87;;;19.10;;
15567;SDS011;7885;42.596;23.044;2022-10-22T02:56:43;25.07;;;19.20;;
15567;SDS011;7885;42.596;23.044;2022-10-22T02:59:09;23.27;;;18.80;;
15567;SDS011;7885;42.596;23.044;2022-10-22T03:01:36;50.67;;;32.63;;
15567;SDS011;7885;42.596;23.044;2022-10-22T03:04:04;32.10;;;24.43;;
15567;SDS011;7885;42.596;23.044;2022-10-22T03:06:31;19.27;;;15.17;;
15567;SDS011;7885;42.596;23.044;2022-10-22T03:08:58;27.73;;;18.70;;
15567;SDS011;7885;42.596;23.044;2022-10-22T03:11:25;26.07;;;19.43;;
15567;SDS011;7885;42.596;23.044;2022-10-22T03:13:51;25.40;;;17.70;;
15567;SDS011;7885;42.596;23.044;2022-10-22T03:16:18;23.20;;;18.23;;
15567;SDS011;7885;42.596;23.044;2022-10-22T03:18:45;20.33;;;17.10;;
15567;SDS011;7885;42.596;23.044;2022-10-22T03:21:15;23.93;;;17.87;;
15567;SDS011;7885;42.596;23.044;2022-10-22T03:23:49;23.20;;;18.43;;
15567;SDS011;7885;42.596;23.044;2022-10-22T03:26:17;28.73;;;19.43;;
15567;SDS011;7885;42.596;23.044;2022-10-22T03:28:44;24.53;;;21.10;;
15567;SDS011;7885;42.596;23.044;2022-10-22T03:31:12;28.27;;;20.37;;
15567;SDS011;7885;42.596;23.044;2022-10-22T03:33:39;25.50;;;19.93;;
15567;SDS011;7885;42.596;23.044;2022-10-22T03:36:06;22.13;;;19.27;;
15567;SDS011;7885;42.596;23.044;2022-10-22T03:38:35;22.83;;;17.33;;
15567;SDS011;7885;42.596;23.044;2022-10-22T03:41:04;20.20;;;15.87;;
15567;SDS011;7885;42.596;23.044;2022-10-22T03:43:32;24.57;;;18.07;;
15567;SDS011;7885;42.596;23.044;2022-10-22T03:45:59;23.33;;;17.40;;
15567;SDS011;7885;42.596;23.044;2022-10-22T03:48:26;22.80;;;18.63;;
15567;SDS011;7885;42.596;23.044;2022-10-22T03:50:53;22.00;;;18.60;;
15567;SDS011;7885;42.596;23.044;2022-10-22T03:53:20;26.27;;;22.37;;
15567;SDS011;7885;42.596;23.044;2022-10-22T03:55:48;28.00;;;25.00;;
15567;SDS011;7885;42.596;23.044;2022-10-22T03:58:15;25.93;;;23.07;;
15567;SDS011;7885;42.596;23.044;2022-10-22T04:00:41;25.43;;;20.00;;
15567;SDS011;7885;42.596;23.044;2022-10-22T04:03:08;28.83;;;22.70;;
15567;SDS011;7885;42.596;23.044;2022-10-22T04:05:35;33.87;;;24.23;;
15567;SDS011;7885;42.596;23.044;2022-10-22T04:08:02;25.77;;;21.70;;
15567;SDS011;7885;42.596;23.044;2022-10-22T04:10:28;23.97;;;20.43;;
15567;SDS011;7885;42.596;23.044;2022-10-22T04:12:56;21.80;;;19.37;;
15567;SDS011;7885;42.596;23.044;2022-10-22T04:15:23;22.30;;;18.77;;
15567;SDS011;7885;42.596;23.044;2022-10-22T04:17:52;21.70;;;19.13;;
15567;SDS011;7885;42.596;23.044;2022-10-22T04:20:19;21.17;;;18.90;;
15567;SDS011;7885;42.596;23.044;2022-10-22T04:22:46;22.93;;;20.50;;
15567;SDS011;7885;42.596;23.044;2022-10-22T04:25:12;23.33;;;18.90;;
15567;SDS011;7885;42.596;23.044;2022-10-22T04:27:39;21.83;;;19.40;;
15567;SDS011;7885;42.596;23.044;2022-10-22T04:30:08;22.77;;;18.30;;
15567;SDS011;7885;42.596;23.044;2022-10-22T04:32:35;24.90;;;20.07;;
15567;SDS011;7885;42.596;23.044;2022-10-22T04:35:02;22.47;;;19.10;;
15567;SDS011;7885;42.596;23.044;2022-10-22T04:37:29;21.90;;;19.50;;
15567;SDS011;7885;42.596;23.044;2022-10-22T04:39:56;23.37;;;19.17;;
15567;SDS011;7885;42.596;23.044;2022-10-22T04:42:23;23.83;;;20.67;;
15567;SDS011;7885;42.596;23.044;2022-10-22T04:44:50;19.90;;;17.33;;
15567;SDS011;7885;42.596;23.044;2022-10-22T04:47:18;21.50;;;18.33;;
15567;SDS011;7885;42.596;23.044;2022-10-22T04:49:45;23.37;;;19.10;;
15567;SDS011;7885;42.596;23.044;2022-10-22T04:52:12;22.17;;;18.27;;
15567;SDS011;7885;42.596;23.044;2022-10-22T04:54:38;21.13;;;18.50;;
15567;SDS011;7885;42.596;23.044;2022-10-22T04:57:05;22.20;;;19.77;;
15567;SDS011;7885;42.596;23.044;2022-10-22T04:59:32;21.67;;;19.30;;
15567;SDS011;7885;42.596;23.044;2022-10-22T05:01:58;22.67;;;19.83;;
15567;SDS011;7885;42.596;23.044;2022-10-22T05:04:27;23.37;;;18.73;;
15567;SDS011;7885;42.596;23.044;2022-10-22T05:06:53;23.67;;;19.67;;
15567;SDS011;7885;42.596;23.044;2022-10-22T05:09:20;22.07;;;19.40;;
15567;SDS011;7885;42.596;23.044;2022-10-22T05:11:48;25.67;;;19.90;;
15567;SDS011;7885;42.596;23.044;2022-10-22T05:14:17;27.87;;;20.00;;
15567;SDS011;7885;42.596;23.044;2022-10-22T05:16:46;23.77;;;20.77;;
15567;SDS011;7885;42.596;23.044;2022-10-22T05:19:14;23.37;;;20.97;;
15567;SDS011;7885;42.596;23.044;2022-10-22T05:21:44;30.13;;;20.80;;
15567;SDS011;7885;42.596;23.044;2022-10-22T05:24:11;22.10;;;18.80;;
15567;SDS011;7885;42.596;23.044;2022-10-22T05:26:38;23.90;;;20.03;;
15567;SDS011;7885;42.596;23.044;2022-10-22T05:29:05;21.27;;;18.60;;
15567;SDS011;7885;42.596;23.044;2022-10-22T05:31:31;21.83;;;19.53;;
15567;SDS011;7885;42.596;23.044;2022-10-22T05:33:58;22.87;;;20.43;;
15567;SDS011;7885;42.596;23.044;2022-10-22T05:36:25;22.27;;;19.97;;
15567;SDS011;7885;42.596;23.044;2022-10-22T05:38:53;22.67;;;20.27;;
15567;SDS011;7885;42.596;23.044;2022-10-22T05:41:22;27.80;;;21.10;;
15567;SDS011;7885;42.596;23.044;2022-10-22T05:43:50;27.07;;;20.40;;
15567;SDS011;7885;42.596;23.044;2022-10-22T05:46:20;41.37;;;36.97;;
15567;SDS011;7885;42.596;23.044;2022-10-22T05:48:48;27.37;;;21.10;;
15567;SDS011;7885;42.596;23.044;2022-10-22T05:51:15;24.63;;;20.13;;
15567;SDS011;7885;42.596;23.044;2022-10-22T05:53:42;22.90;;;20.40;;
15567;SDS011;7885;42.596;23.044;2022-10-22T05:56:12;23.70;;;20.23;;
15567;SDS011;7885;42.596;23.044;2022-10-22T05:58:40;22.97;;;20.47;;
15567;SDS011;7885;42.596;23.044;2022-10-22T06:01:10;26.87;;;22.43;;
15567;SDS011;7885;42.596;23.044;2022-10-22T06:03:38;31.17;;;23.70;;
15567;SDS011;7885;42.596;23.044;2022-10-22T06:06:06;30.13;;;22.60;;
15567;SDS011;7885;42.596;23.044;2022-10-22T06:08:41;22.10;;;19.70;;
15567;SDS011;7885;42.596;23.044;2022-10-22T06:11:07;28.43;;;21.53;;
15567;SDS011;7885;42.596;23.044;2022-10-22T06:13:36;26.00;;;19.63;;
15567;SDS011;7885;42.596;23.044;2022-10-22T06:16:02;22.70;;;20.13;;
15567;SDS011;7885;42.596;23.044;2022-10-22T06:18:32;23.97;;;21.10;;
15567;SDS011;7885;42.596;23.044;2022-10-22T06:24:21;24.30;;;18.37;;
15567;SDS011;7885;42.596;23.044;2022-10-22T06:26:48;22.93;;;18.70;;
15567;SDS011;7885;42.596;23.044;2022-10-22T06:29:17;21.00;;;18.70;;
15567;SDS011;7885;42.596;23.044;2022-10-22T06:31:43;15.47;;;13.97;;
15567;SDS011;7885;42.596;23.044;2022-10-22T06:34:11;17.97;;;15.37;;
15567;SDS011;7885;42.596;23.044;2022-10-22T06:36:39;20.63;;;17.30;;
15567;SDS011;7885;42.596;23.044;2022-10-22T06:39:08;21.17;;;18.57;;
15567;SDS011;7885;42.596;23.044;2022-10-22T06:41:36;21.80;;;18.77;;
15567;SDS011;7885;42.596;23.044;2022-10-22T06:44:03;20.63;;;18.47;;
15567;SDS011;7885;42.596;23.044;2022-10-22T06:46:32;20.90;;;18.80;;
15567;SDS011;7885;42.596;23.044;2022-10-22T06:48:59;27.20;;;24.23;;
15567;SDS011;7885;42.596;23.044;2022-10-22T06:51:28;24.77;;;21.27;;
15567;SDS011;7885;42.596;23.044;2022-10-22T06:53:55;21.10;;;18.65;;
15567;SDS011;7885;42.596;23.044;2022-10-22T06:56:24;19.30;;;17.35;;
15567;SDS011;7885;42.596;23.044;2022-10-22T06:58:54;19.63;;;17.15;;
15567;SDS011;7885;42.596;23.044;2022-10-22T07:01:22;28.13;;;17.15;;
15567;SDS011;7885;42.596;23.044;2022-10-22T07:03:51;21.73;;;17.63;;
15567;SDS011;7885;42.596;23.044;2022-10-22T07:06:19;19.08;;;17.08;;
15567;SDS011;7885;42.596;23.044;2022-10-22T07:08:47;23.92;;;19.25;;
15567;SDS011;7885;42.596;23.044;2022-10-22T07:11:14;21.70;;;17.65;;
15567;SDS011;7885;42.596;23.044;2022-10-22T07:13:42;19.92;;;16.17;;
15567;SDS011;7885;42.596;23.044;2022-10-22T07:16:10;21.25;;;16.48;;
15567;SDS011;7885;42.596;23.044;2022-10-22T07:18:37;19.80;;;15.43;;
15567;SDS011;7885;42.596;23.044;2022-10-22T07:21:06;16.98;;;15.15;;
15567;SDS011;7885;42.596;23.044;2022-10-22T07:23:33;17.30;;;15.30;;
15567;SDS011;7885;42.596;23.044;2022-10-22T07:26:00;16.38;;;14.80;;
15567;SDS011;7885;42.596;23.044;2022-10-22T07:28:27;17.15;;;14.73;;
15567;SDS011;7885;42.596;23.044;2022-10-22T07:30:54;19.15;;;15.25;;
15567;SDS011;7885;42.596;23.044;2022-10-22T07:33:21;16.75;;;14.95;;
15567;SDS011;7885;42.596;23.044;2022-10-22T07:35:48;19.25;;;16.25;;
15567;SDS011;7885;42.596;23.044;2022-10-22T07:38:16;25.13;;;17.92;;
15567;SDS011;7885;42.596;23.044;2022-10-22T07:40:43;25.45;;;16.50;;
15567;SDS011;7885;42.596;23.044;2022-10-22T07:43:09;18.48;;;15.80;;
15567;SDS011;7885;42.596;23.044;2022-10-22T07:45:36;17.98;;;16.13;;
15567;SDS011;7885;42.596;23.044;2022-10-22T07:48:03;15.82;;;14.23;;
15567;SDS011;7885;42.596;23.044;2022-10-22T07:50:30;18.38;;;14.05;;
15567;SDS011;7885;42.596;23.044;2022-10-22T07:52:57;15.63;;;13.15;;
15567;SDS011;7885;42.596;23.044;2022-10-22T07:55:25;19.80;;;15.57;;
15567;SDS011;7885;42.596;23.044;2022-10-22T07:57:52;20.55;;;15.52;;
15567;SDS011;7885;42.596;23.044;2022-10-22T08:00:19;17.33;;;15.52;;
15567;SDS011;7885;42.596;23.044;2022-10-22T08:02:46;17.25;;;15.23;;
15567;SDS011;7885;42.596;23.044;2022-10-22T08:05:13;16.33;;;14.32;;
15567;SDS011;7885;42.596;23.044;2022-10-22T08:07:40;18.83;;;16.70;;
15567;SDS011;7885;42.596;23.044;2022-10-22T08:10:08;17.77;;;15.63;;
15567;SDS011;7885;42.596;23.044;2022-10-22T08:12:37;17.83;;;15.90;;
15567;SDS011;7885;42.596;23.044;2022-10-22T08:15:04;20.85;;;15.43;;
15567;SDS011;7885;42.596;23.044;2022-10-22T08:17:32;18.92;;;14.88;;
15567;SDS011;7885;42.596;23.044;2022-10-22T08:19:59;17.23;;;15.40;;
15567;SDS011;7885;42.596;23.044;2022-10-22T08:22:26;17.45;;;15.73;;
15567;SDS011;7885;42.596;23.044;2022-10-22T08:24:52;18.42;;;16.60;;
15567;SDS011;7885;42.596;23.044;2022-10-22T08:27:19;20.08;;;17.52;;
15567;SDS011;7885;42.596;23.044;2022-10-22T08:29:47;17.80;;;15.63;;
15567;SDS011;7885;42.596;23.044;2022-10-22T08:32:15;18.23;;;16.42;;
15567;SDS011;7885;42.596;23.044;2022-10-22T08:34:42;19.92;;;15.52;;
15567;SDS011;7885;42.596;23.044;2022-10-22T08:37:09;15.65;;;13.98;;
15567;SDS011;7885;42.596;23.044;2022-10-22T08:39:38;19.23;;;13.82;;
15567;SDS011;7885;42.596;23.044;2022-10-22T08:42:23;16.17;;;13.38;;
15567;SDS011;7885;42.596;23.044;2022-10-22T08:45:11;17.75;;;13.25;;
15567;SDS011;7885;42.596;23.044;2022-10-22T08:47:50;15.60;;;11.93;;
15567;SDS011;7885;42.596;23.044;2022-10-22T08:50:29;18.83;;;11.82;;
15567;SDS011;7885;42.596;23.044;2022-10-22T08:52:59;15.32;;;12.45;;
15567;SDS011;7885;42.596;23.044;2022-10-22T08:55:28;15.25;;;12.40;;
15567;SDS011;7885;42.596;23.044;2022-10-22T08:57:58;13.32;;;11.95;;
15567;SDS011;7885;42.596;23.044;2022-10-22T09:00:32;11.63;;;10.20;;
15567;SDS011;7885;42.596;23.044;2022-10-22T09:03:05;13.15;;;9.13;;
15567;SDS011;7885;42.596;23.044;2022-10-22T09:05:44;6.45;;;5.80;;
15567;SDS011;7885;42.596;23.044;2022-10-22T09:08:21;6.63;;;6.03;;
15567;SDS011;7885;42.596;23.044;2022-10-22T09:10:49;6.82;;;6.22;;
15567;SDS011;7885;42.596;23.044;2022-10-22T09:13:20;6.78;;;6.28;;
15567;SDS011;7885;42.596;23.044;2022-10-22T09:15:51;10.48;;;7.85;;
15567;SDS011;7885;42.596;23.044;2022-10-22T09:18:23;12.10;;;10.88;;
15567;SDS011;7885;42.596;23.044;2022-10-22T09:21:01;13.10;;;9.38;;
15567;SDS011;7885;42.596;23.044;2022-10-22T09:23:43;11.48;;;7.60;;
15567;SDS011;7885;42.596;23.044;2022-10-22T09:26:20;8.32;;;7.53;;
15567;SDS011;7885;42.596;23.044;2022-10-22T09:28:48;8.43;;;7.53;;
15567;SDS011;7885;42.596;23.044;2022-10-22T09:31:17;7.47;;;6.50;;
15567;SDS011;7885;42.596;23.044;2022-10-22T09:33:45;6.75;;;6.15;;
15567;SDS011;7885;42.596;23.044;2022-10-22T09:36:15;7.22;;;6.07;;
15567;SDS011;7885;42.596;23.044;2022-10-22T09:38:44;8.63;;;5.80;;
15567;SDS011;7885;42.596;23.044;2022-10-22T09:41:13;9.98;;;5.85;;
15567;SDS011;7885;42.596;23.044;2022-10-22T09:43:40;7.35;;;5.72;;
15567;SDS011;7885;42.596;23.044;2022-10-22T09:46:07;7.68;;;5.72;;
15567;SDS011;7885;42.596;23.044;2022-10-22T09:48:42;6.32;;;5.53;;
15567;SDS011;7885;42.596;23.044;2022-10-22T09:51:14;9.95;;;5.93;;
15567;SDS011;7885;42.596;23.044;2022-10-22T09:53:45;9.02;;;6.00;;
15567;SDS011;7885;42.596;23.044;2022-10-22T09:56:16;8.77;;;5.80;;
15567;SDS011;7885;42.596;23.044;2022-10-22T09:58:49;9.80;;;6.13;;
15567;SDS011;7885;42.596;23.044;2022-10-22T10:01:17;6.25;;;5.60;;
15567;SDS011;7885;42.596;23.044;2022-10-22T10:03:51;8.13;;;5.28;;
15567;SDS011;7885;42.596;23.044;2022-10-22T10:06:19;7.22;;;6.47;;
15567;SDS011;7885;42.596;23.044;2022-10-22T10:08:49;9.00;;;5.88;;
15567;SDS011;7885;42.596;23.044;2022-10-22T10:11:18;7.50;;;5.90;;
15567;SDS011;7885;42.596;23.044;2022-10-22T10:13:55;8.23;;;5.87;;
15567;SDS011;7885;42.596;23.044;2022-10-22T10:16:35;9.67;;;6.00;;
15567;SDS011;7885;42.596;23.044;2022-10-22T10:22:00;8.63;;;5.83;;
15567;SDS011;7885;42.596;23.044;2022-10-22T10:24:39;6.20;;;5.60;;
15567;SDS011;7885;42.596;23.044;2022-10-22T10:27:21;5.75;;;4.97;;
15567;SDS011;7885;42.596;23.044;2022-10-22T10:29:52;6.13;;;5.22;;
15567;SDS011;7885;42.596;23.044;2022-10-22T10:32:30;6.25;;;5.20;;
15567;SDS011;7885;42.596;23.044;2022-10-22T10:35:17;7.18;;;5.40;;
15567;SDS011;7885;42.596;23.044;2022-10-22T10:37:52;6.32;;;5.22;;
15567;SDS011;7885;42.596;23.044;2022-10-22T10:40:41;6.35;;;5.00;;
15567;SDS011;7885;42.596;23.044;2022-10-22T10:43:14;8.07;;;5.32;;
15567;SDS011;7885;42.596;23.044;2022-10-22T10:45:49;10.30;;;5.35;;
15567;SDS011;7885;42.596;23.044;2022-10-22T10:48:29;15.30;;;6.18;;
15567;SDS011;7885;42.596;23.044;2022-10-22T10:51:09;7.07;;;5.55;;
15567;SDS011;7885;42.596;23.044;2022-10-22T10:53:59;7.43;;;5.30;;
15567;SDS011;7885;42.596;23.044;2022-10-22T10:56:38;6.78;;;5.53;;
15567;SDS011;7885;42.596;23.044;2022-10-22T10:59:10;6.13;;;5.15;;
15567;SDS011;7885;42.596;23.044;2022-10-22T11:01:45;6.18;;;4.85;;
15567;SDS011;7885;42.596;23.044;2022-10-22T11:07:23;9.25;;;5.90;;
15567;SDS011;7885;42.596;23.044;2022-10-22T11:09:54;8.50;;;5.35;;
15567;SDS011;7885;42.596;23.044;2022-10-22T11:12:27;13.13;;;5.20;;
15567;SDS011;7885;42.596;23.044;2022-10-22T11:15:00;7.20;;;5.40;;
15567;SDS011;7885;42.596;23.044;2022-10-22T11:17:34;8.45;;;5.32;;
15567;SDS011;7885;42.596;23.044;2022-10-22T11:20:06;9.53;;;5.43;;
15567;SDS011;7885;42.596;23.044;2022-10-22T11:22:40;10.77;;;5.33;;
15567;SDS011;7885;42.596;23.044;2022-10-22T11:25:14;9.33;;;5.07;;
15567;SDS011;7885;42.596;23.044;2022-10-22T11:27:46;6.70;;;5.00;;
15567;SDS011;7885;42.596;23.044;2022-10-22T11:30:18;6.57;;;5.53;;
15567;SDS011;7885;42.596;23.044;2022-10-22T11:32:47;8.50;;;5.27;;
15567;SDS011;7885;42.596;23.044;2022-10-22T11:35:19;6.53;;;4.93;;
15567;SDS011;7885;42.596;23.044;2022-10-22T11:37:50;6.60;;;5.00;;
15567;SDS011;7885;42.596;23.044;2022-10-22T11:40:20;7.43;;;4.77;;
15567;SDS011;7885;42.596;23.044;2022-10-22T11:42:55;7.00;;;5.13;;
15567;SDS011;7885;42.596;23.044;2022-10-22T11:45:27;10.60;;;4.97;;
15567;SDS011;7885;42.596;23.044;2022-10-22T11:47:57;5.93;;;5.00;;
15567;SDS011;7885;42.596;23.044;2022-10-22T11:50:43;6.13;;;5.00;;
15567;SDS011;7885;42.596;23.044;2022-10-22T11:53:17;7.97;;;5.30;;
15567;SDS011;7885;42.596;23.044;2022-10-22T11:55:51;6.07;;;4.90;;
15567;SDS011;7885;42.596;23.044;2022-10-22T11:58:27;7.00;;;5.03;;
15567;SDS011;7885;42.596;23.044;2022-10-22T12:00:56;8.23;;;5.47;;
15567;SDS011;7885;42.596;23.044;2022-10-22T12:03:46;6.93;;;4.87;;
15567;SDS011;7885;42.596;23.044;2022-10-22T12:06:17;7.57;;;4.60;;
15567;SDS011;7885;42.596;23.044;2022-10-22T12:08:51;9.07;;;5.00;;
15567;SDS011;7885;42.596;23.044;2022-10-22T12:11:24;7.57;;;5.20;;
15567;SDS011;7885;42.596;23.044;2022-10-22T12:13:59;13.97;;;5.37;;
15567;SDS011;7885;42.596;23.044;2022-10-22T12:16:34;10.23;;;5.70;;
15567;SDS011;7885;42.596;23.044;2022-10-22T12:19:03;9.13;;;5.70;;
15567;SDS011;7885;42.596;23.044;2022-10-22T12:21:38;8.50;;;5.60;;
15567;SDS011;7885;42.596;23.044;2022-10-22T12:24:08;8.70;;;4.77;;
15567;SDS011;7885;42.596;23.044;2022-10-22T12:26:39;9.40;;;5.43;;
15567;SDS011;7885;42.596;23.044;2022-10-22T12:29:08;7.97;;;5.53;;
15567;SDS011;7885;42.596;23.044;2022-10-22T12:31:38;9.83;;;5.97;;
15567;SDS011;7885;42.596;23.044;2022-10-22T12:34:09;7.33;;;5.40;;
15567;SDS011;7885;42.596;23.044;2022-10-22T12:36:39;14.97;;;5.97;;
15567;SDS011;7885;42.596;23.044;2022-10-22T12:39:11;10.27;;;5.60;;
15567;SDS011;7885;42.596;23.044;2022-10-22T12:41:39;8.67;;;4.97;;
15567;SDS011;7885;42.596;23.044;2022-10-22T12:44:06;7.63;;;5.00;;
15567;SDS011;7885;42.596;23.044;2022-10-22T12:46:37;7.47;;;5.10;;
15567;SDS011;7885;42.596;23.044;2022-10-22T12:49:04;10.73;;;5.17;;
15567;SDS011;7885;42.596;23.044;2022-10-22T12:51:36;10.57;;;5.73;;
15567;SDS011;7885;42.596;23.044;2022-10-22T12:54:05;10.67;;;4.73;;
15567;SDS011;7885;42.596;23.044;2022-10-22T12:56:35;9.17;;;5.60;;
15567;SDS011;7885;42.596;23.044;2022-10-22T12:59:04;8.67;;;5.60;;
15567;SDS011;7885;42.596;23.044;2022-10-22T13:01:38;8.97;;;5.20;;
15567;SDS011;7885;42.596;23.044;2022-10-22T13:04:30;8.00;;;5.07;;
15567;SDS011;7885;42.596;23.044;2022-10-22T13:07:16;11.17;;;5.53;;
15567;SDS011;7885;42.596;23.044;2022-10-22T13:09:45;10.97;;;5.83;;
15567;SDS011;7885;42.596;23.044;2022-10-22T13:12:23;8.07;;;5.03;;
15567;SDS011;7885;42.596;23.044;2022-10-22T13:14:50;30.17;;;7.70;;
15567;SDS011;7885;42.596;23.044;2022-10-22T13:17:18;10.53;;;6.20;;
15567;SDS011;7885;42.596;23.044;2022-10-22T13:19:48;12.03;;;6.93;;
15567;SDS011;7885;42.596;23.044;2022-10-22T13:22:30;10.53;;;5.90;;
15567;SDS011;7885;42.596;23.044;2022-10-22T13:25:14;9.80;;;5.27;;
15567;SDS011;7885;42.596;23.044;2022-10-22T13:27:47;8.67;;;5.47;;
15567;SDS011;7885;42.596;23.044;2022-10-22T13:30:17;10.07;;;7.13;;
15567;SDS011;7885;42.596;23.044;2022-10-22T13:32:48;9.53;;;4.90;;
15567;SDS011;7885;42.596;23.044;2022-10-22T13:35:17;10.13;;;5.73;;
15567;SDS011;7885;42.596;23.044;2022-10-22T13:37:46;6.90;;;5.23;;
15567;SDS011;7885;42.596;23.044;2022-10-22T13:40:13;8.57;;;5.40;;
15567;SDS011;7885;42.596;23.044;2022-10-22T13:42:40;9.53;;;5.47;;
15567;SDS011;7885;42.596;23.044;2022-10-22T13:45:09;8.17;;;5.50;;
15567;SDS011;7885;42.596;23.044;2022-10-22T13:47:35;8.03;;;4.43;;
15567;SDS011;7885;42.596;23.044;2022-10-22T13:50:03;10.37;;;5.50;;
15567;SDS011;7885;42.596;23.044;2022-10-22T13:52:39;6.13;;;4.70;;
15567;SDS011;7885;42.596;23.044;2022-10-22T13:55:14;14.20;;;5.37;;
15567;SDS011;7885;42.596;23.044;2022-10-22T13:57:42;8.17;;;4.90;;
15567;SDS011;7885;42.596;23.044;2022-10-22T14:00:12;10.20;;;5.37;;
15567;SDS011;7885;42.596;23.044;2022-10-22T14:02:41;10.23;;;5.23;;
15567;SDS011;7885;42.596;23.044;2022-10-22T14:05:08;9.47;;;5.27;;
15567;SDS011;7885;42.596;23.044;2022-10-22T14:07:36;9.10;;;5.13;;
15567;SDS011;7885;42.596;23.044;2022-10-22T14:12:51;9.93;;;5.00;;
15567;SDS011;7885;42.596;23.044;2022-10-22T14:15:20;6.23;;;4.90;;
15567;SDS011;7885;42.596;23.044;2022-10-22T14:17:51;8.13;;;4.60;;
15567;SDS011;7885;42.596;23.044;2022-10-22T14:20:21;9.63;;;5.20;;
15567;SDS011;7885;42.596;23.044;2022-10-22T14:22:49;12.07;;;5.00;;
15567;SDS011;7885;42.596;23.044;2022-10-22T14:25:17;9.63;;;4.97;;
15567;SDS011;7885;42.596;23.044;2022-10-22T14:27:47;12.27;;;6.70;;
15567;SDS011;7885;42.596;23.044;2022-10-22T14:30:14;10.00;;;5.00;;
15567;SDS011;7885;42.596;23.044;2022-10-22T14:32:44;18.60;;;5.40;;
15567;SDS011;7885;42.596;23.044;2022-10-22T14:35:13;8.80;;;4.90;;
15567;SDS011;7885;42.596;23.044;2022-10-22T14:37:41;9.43;;;4.90;;
15567;SDS011;7885;42.596;23.044;2022-10-22T14:40:08;10.07;;;5.30;;
15567;SDS011;7885;42.596;23.044;2022-10-22T14:42:39;13.50;;;8.03;;
15567;SDS011;7885;42.596;23.044;2022-10-22T14:45:09;13.77;;;5.47;;
15567;SDS011;7885;42.596;23.044;2022-10-22T14:47:40;10.33;;;5.30;;
15567;SDS011;7885;42.596;23.044;2022-10-22T14:50:09;9.23;;;5.80;;
15567;SDS011;7885;42.596;23.044;2022-10-22T14:52:36;17.10;;;6.27;;
15567;SDS011;7885;42.596;23.044;2022-10-22T14:55:03;13.97;;;7.80;;
15567;SDS011;7885;42.596;23.044;2022-10-22T14:57:31;13.67;;;7.73;;
15567;SDS011;7885;42.596;23.044;2022-10-22T14:59:58;13.17;;;6.90;;